Time;durP1;ratioP1;P1;durP2;ratioP2;P2;SDS_P1;SDS_P2;PMS_P1;PMS_P2;Temp;Humidity;BMP_temperature;BMP_pressure;BME280_temperature;BME280_humidity;BME280_pressure;Samples;Min_cycle;Max_cycle;Signal;HPM_P1;HPM_P2
2020/12/07 00:01:12;;;;;;;31.03;17.47;;;7.30;99.90;;;;;;5036749;28;20167;-84
2020/12/07 00:03:38;;;;;;;29.57;15.33;;;7.30;99.90;;;;;;5054330;28;20657;-81
2020/12/07 00:06:03;;;;;;;30.67;16.53;;;7.30;99.90;;;;;;5036512;28;20206;-82
2020/12/07 00:08:29;;;;;;;33.47;16.60;;;7.30;99.90;;;;;;5036820;28;20731;-82
2020/12/07 00:10:54;;;;;;;32.97;17.43;;;7.20;99.90;;;;;;5036599;28;20210;-82
2020/12/07 00:13:20;;;;;;;30.50;17.13;;;7.30;99.90;;;;;;5054373;28;20175;-82
2020/12/07 00:15:45;;;;;;;32.23;16.37;;;7.20;99.90;;;;;;5036736;28;20230;-84
2020/12/07 00:18:11;;;;;;;33.70;17.77;;;7.20;99.90;;;;;;5054572;28;20511;-83
2020/12/07 00:20:36;;;;;;;28.83;15.93;;;7.20;99.90;;;;;;5055106;28;20176;-83
2020/12/07 00:23:02;;;;;;;35.43;16.43;;;7.20;99.90;;;;;;5035520;28;20210;-83
2020/12/07 00:25:27;;;;;;;30.40;16.57;;;7.20;99.90;;;;;;5035030;28;20360;-84
2020/12/07 00:27:53;;;;;;;30.97;15.80;;;7.20;99.90;;;;;;5034484;28;20175;-86
2020/12/07 00:30:18;;;;;;;29.60;15.33;;;7.20;99.90;;;;;;5034634;28;20183;-84
2020/12/07 00:32:44;;;;;;;32.40;16.40;;;7.20;99.90;;;;;;5034585;28;20221;-81
2020/12/07 00:35:10;;;;;;;32.73;16.57;;;7.20;99.90;;;;;;5052495;28;20230;-84
2020/12/07 00:37:35;;;;;;;29.87;16.87;;;7.10;99.90;;;;;;5052655;28;20258;-82
2020/12/07 00:40:01;;;;;;;33.70;17.43;;;7.20;99.90;;;;;;5034586;28;20179;-83
2020/12/07 00:42:26;;;;;;;32.60;16.00;;;7.20;99.90;;;;;;5034608;28;20180;-84
2020/12/07 00:44:52;;;;;;;32.47;17.23;;;7.20;99.90;;;;;;5034437;28;20290;-83
2020/12/07 00:47:18;;;;;;;34.53;17.07;;;7.20;99.90;;;;;;5034144;28;20179;-85
2020/12/07 00:49:43;;;;;;;36.13;16.70;;;7.10;99.90;;;;;;5052656;28;20208;-84
2020/12/07 00:52:09;;;;;;;32.67;16.40;;;7.20;99.90;;;;;;5034209;28;20637;-81
2020/12/07 00:54:35;;;;;;;30.70;15.53;;;7.10;99.90;;;;;;5034098;28;20760;-84
2020/12/07 00:57:02;;;;;;;30.67;16.10;;;7.10;99.90;;;;;;5035747;28;20176;-82
2020/12/07 00:59:28;;;;;;;28.83;15.53;;;7.10;99.90;;;;;;5055988;28;20232;-82
2020/12/07 01:01:55;;;;;;;28.23;15.07;;;7.20;99.90;;;;;;5038125;28;20168;-83
2020/12/07 01:04:21;;;;;;;30.03;15.20;;;7.20;99.90;;;;;;5055882;28;20209;-81
2020/12/07 01:06:47;;;;;;;31.37;15.87;;;7.20;99.90;;;;;;5037909;28;20176;-84
2020/12/07 01:09:17;;;;;;;34.97;17.43;;;7.10;99.90;;;;;;5038131;28;20175;-84
2020/12/07 01:11:51;;;;;;;31.13;16.97;;;7.20;99.90;;;;;;5037920;28;20172;-84
2020/12/07 01:14:17;;;;;;;30.47;16.90;;;7.10;99.90;;;;;;5037755;28;20207;-82
2020/12/07 01:16:43;;;;;;;32.03;15.50;;;7.20;99.90;;;;;;5037706;28;20176;-82
2020/12/07 01:19:09;;;;;;;29.87;15.97;;;7.10;99.90;;;;;;5038019;28;20274;-84
2020/12/07 01:21:37;;;;;;;31.10;16.23;;;7.20;99.90;;;;;;5038092;28;20717;-83
2020/12/07 01:24:03;;;;;;;34.83;16.40;;;7.20;99.90;;;;;;5037723;28;20175;-83
2020/12/07 01:26:30;;;;;;;30.90;16.10;;;7.20;99.90;;;;;;5055284;28;20255;-84
2020/12/07 01:28:57;;;;;;;28.33;15.77;;;7.10;99.90;;;;;;5038081;28;20180;-83
2020/12/07 01:31:23;;;;;;;33.13;15.33;;;7.20;99.90;;;;;;5037648;28;20175;-83
2020/12/07 01:33:48;;;;;;;31.40;15.10;;;7.20;99.90;;;;;;5037624;28;20225;-84
2020/12/07 01:36:15;;;;;;;27.70;15.17;;;7.10;99.90;;;;;;5037585;28;20249;-83
2020/12/07 01:38:41;;;;;;;30.53;15.63;;;7.20;99.90;;;;;;5037813;28;20638;-84
2020/12/07 01:41:06;;;;;;;31.77;16.93;;;7.20;99.90;;;;;;5037633;28;20179;-82
2020/12/07 01:43:32;;;;;;;31.93;17.03;;;7.10;99.90;;;;;;5037576;28;20220;-83
2020/12/07 01:45:57;;;;;;;31.70;15.60;;;7.10;99.90;;;;;;5055110;28;20250;-84
2020/12/07 01:48:25;;;;;;;31.90;15.17;;;7.10;99.90;;;;;;5037453;28;20550;-84
2020/12/07 01:50:52;;;;;;;29.23;14.47;;;7.10;99.90;;;;;;5037513;28;20217;-82
2020/12/07 01:53:19;;;;;;;28.80;15.30;;;7.10;99.90;;;;;;5054942;28;20186;-84
2020/12/07 01:55:44;;;;;;;29.83;15.47;;;7.10;99.90;;;;;;5037048;28;20214;-82
2020/12/07 01:58:10;;;;;;;29.83;16.60;;;7.10;99.90;;;;;;5037106;28;20176;-84
2020/12/07 02:00:36;;;;;;;27.40;14.20;;;7.10;99.90;;;;;;5037558;28;20552;-84
2020/12/07 02:03:02;;;;;;;28.70;14.57;;;7.10;99.90;;;;;;5037536;28;20482;-83
2020/12/07 02:05:28;;;;;;;28.00;15.20;;;7.10;99.90;;;;;;5037438;28;20195;-83
2020/12/07 02:08:13;;;;;;;32.30;15.90;;;7.00;99.90;;;;;;5036899;28;20271;-85
2020/12/07 02:10:38;;;;;;;31.13;16.80;;;7.00;99.90;;;;;;5037445;28;20179;-83
2020/12/07 02:13:04;;;;;;;30.03;15.23;;;7.00;99.90;;;;;;5037514;28;20184;-84
2020/12/07 02:15:30;;;;;;;27.50;14.80;;;7.00;99.90;;;;;;5037228;28;20218;-85
2020/12/07 02:17:55;;;;;;;29.97;16.60;;;7.00;99.90;;;;;;5037316;28;20189;-83
2020/12/07 02:20:21;;;;;;;34.37;17.97;;;6.90;99.90;;;;;;5037457;28;20584;-82
2020/12/07 02:22:46;;;;;;;28.17;14.73;;;6.90;99.90;;;;;;5037101;28;20274;-84
2020/12/07 02:25:12;;;;;;;32.40;16.53;;;6.90;99.90;;;;;;5036836;28;20207;-83
2020/12/07 02:27:37;;;;;;;27.17;14.33;;;7.00;99.90;;;;;;5054385;28;20641;-84
2020/12/07 02:30:03;;;;;;;26.67;14.33;;;7.00;99.90;;;;;;5054489;28;20175;-81
2020/12/07 02:32:29;;;;;;;34.13;16.07;;;7.00;99.90;;;;;;5036477;28;20179;-82
2020/12/07 02:34:54;;;;;;;29.90;16.23;;;7.00;99.90;;;;;;5036203;28;20218;-82
2020/12/07 02:37:22;;;;;;;28.57;14.53;;;6.90;99.90;;;;;;5036391;28;20218;-82
2020/12/07 02:39:47;;;;;;;30.87;15.70;;;6.90;99.90;;;;;;5036814;28;20293;-82
2020/12/07 02:42:13;;;;;;;32.13;16.93;;;6.90;99.90;;;;;;5054680;28;20186;-82
2020/12/07 02:44:38;;;;;;;33.70;15.87;;;6.90;99.90;;;;;;5036397;28;20202;-81
2020/12/07 02:47:04;;;;;;;32.37;17.40;;;6.90;99.90;;;;;;5036196;28;20188;-83
2020/12/07 02:49:29;;;;;;;31.07;16.53;;;7.00;99.90;;;;;;5036083;28;20226;-81
2020/12/07 02:51:55;;;;;;;35.63;17.03;;;7.00;99.90;;;;;;5053944;28;20179;-83
2020/12/07 02:54:20;;;;;;;29.27;14.90;;;7.00;99.90;;;;;;5035964;28;20207;-82
2020/12/07 02:56:46;;;;;;;31.70;16.83;;;7.00;99.90;;;;;;5036044;28;20175;-81
2020/12/07 02:59:11;;;;;;;34.47;16.57;;;7.00;99.90;;;;;;5035801;28;20182;-84
2020/12/07 03:01:37;;;;;;;33.43;16.43;;;7.00;99.90;;;;;;5054026;28;20175;-82
2020/12/07 03:04:03;;;;;;;33.83;16.90;;;7.00;99.90;;;;;;5035529;28;20225;-81
2020/12/07 03:06:29;;;;;;;28.73;16.50;;;7.00;99.90;;;;;;5035699;28;20233;-81
2020/12/07 03:08:54;;;;;;;29.80;15.23;;;7.10;99.90;;;;;;5036145;28;20174;-84
2020/12/07 03:11:23;;;;;;;30.87;16.43;;;7.00;99.90;;;;;;5036055;28;20209;-81
2020/12/07 03:13:49;;;;;;;29.53;15.07;;;7.10;99.90;;;;;;5035697;28;20562;-84
2020/12/07 03:16:15;;;;;;;31.20;15.80;;;7.10;99.90;;;;;;5035877;28;20278;-83
2020/12/07 03:18:41;;;;;;;29.90;15.73;;;7.10;99.90;;;;;;5035858;28;20222;-84
2020/12/07 03:21:06;;;;;;;31.47;16.27;;;7.20;99.90;;;;;;5035417;28;20696;-85
2020/12/07 03:23:32;;;;;;;30.87;16.13;;;7.20;99.90;;;;;;5035786;28;20172;-84
2020/12/07 03:25:58;;;;;;;30.87;16.40;;;7.20;99.90;;;;;;5035588;28;20203;-83
2020/12/07 03:28:23;;;;;;;30.77;15.20;;;7.30;99.90;;;;;;5035520;28;20751;-82
2020/12/07 03:30:49;;;;;;;31.33;16.47;;;7.30;99.90;;;;;;5053848;28;20184;-85
2020/12/07 03:33:14;;;;;;;34.13;17.00;;;7.30;99.90;;;;;;5035668;28;20191;-86
2020/12/07 03:35:40;;;;;;;36.33;18.50;;;7.30;99.90;;;;;;5035635;28;20297;-84
2020/12/07 03:38:05;;;;;;;31.47;15.80;;;7.40;99.90;;;;;;5035411;28;20175;-84
2020/12/07 03:40:34;;;;;;;32.30;16.97;;;7.40;99.90;;;;;;5035426;28;20222;-82
2020/12/07 03:43:00;;;;;;;32.73;15.60;;;7.40;99.90;;;;;;5035698;28;20171;-83
2020/12/07 03:45:27;;;;;;;32.40;16.50;;;7.50;99.90;;;;;;5035417;28;20217;-85
2020/12/07 03:47:53;;;;;;;38.07;17.80;;;7.50;99.90;;;;;;5035430;28;20587;-83
2020/12/07 03:50:18;;;;;;;29.80;15.80;;;7.50;99.90;;;;;;5034969;28;20222;-84
2020/12/07 03:52:44;;;;;;;31.33;16.63;;;7.50;99.90;;;;;;5035441;28;20202;-84
2020/12/07 03:55:10;;;;;;;33.30;16.57;;;7.50;99.90;;;;;;5035212;28;20211;-83
2020/12/07 03:57:35;;;;;;;31.13;15.93;;;7.50;99.90;;;;;;5035089;28;20202;-81
2020/12/07 04:00:03;;;;;;;31.87;17.73;;;7.50;99.90;;;;;;5035422;28;20175;-83
2020/12/07 04:02:29;;;;;;;30.10;15.67;;;7.50;99.90;;;;;;5035285;28;20183;-85
2020/12/07 04:05:01;;;;;;;31.23;16.67;;;7.50;99.90;;;;;;5052931;28;20199;-83
2020/12/07 04:07:26;;;;;;;28.83;15.40;;;7.50;99.90;;;;;;5035583;28;20232;-83
2020/12/07 04:09:52;;;;;;;28.87;15.90;;;7.50;99.90;;;;;;5035491;28;20585;-83
2020/12/07 04:12:17;;;;;;;29.87;16.23;;;7.50;99.90;;;;;;5053164;28;20175;-82
2020/12/07 04:14:43;;;;;;;30.00;15.87;;;7.50;99.90;;;;;;5034788;28;20226;-83
2020/12/07 04:17:08;;;;;;;34.83;15.27;;;7.50;99.90;;;;;;5034734;28;20183;-84
2020/12/07 04:19:34;;;;;;;31.43;16.87;;;7.50;99.90;;;;;;5034980;28;20180;-85
2020/12/07 04:21:59;;;;;;;32.30;15.97;;;7.50;99.90;;;;;;5052709;28;20541;-84
2020/12/07 04:24:25;;;;;;;29.90;15.27;;;7.50;99.90;;;;;;5034802;28;20253;-84
2020/12/07 04:26:50;;;;;;;32.17;16.03;;;7.50;99.90;;;;;;5034404;28;20175;-83
2020/12/07 04:29:16;;;;;;;29.30;14.23;;;7.50;99.90;;;;;;5034735;28;20219;-85
2020/12/07 04:31:41;;;;;;;31.60;15.00;;;7.50;99.90;;;;;;5037826;28;20183;-82
2020/12/07 04:34:07;;;;;;;30.37;15.47;;;7.50;99.90;;;;;;5038528;28;20664;-84
2020/12/07 04:36:32;;;;;;;32.10;15.27;;;7.50;99.90;;;;;;5038735;28;20206;-82
2020/12/07 04:38:58;;;;;;;28.23;15.30;;;7.50;99.90;;;;;;5038668;28;20715;-82
2020/12/07 04:41:23;;;;;;;27.93;14.43;;;7.50;99.90;;;;;;5038854;28;20168;-84
2020/12/07 04:43:49;;;;;;;25.63;14.50;;;7.50;99.90;;;;;;5056113;28;20182;-82
2020/12/07 04:46:15;;;;;;;30.07;14.60;;;7.50;99.90;;;;;;5037591;28;20171;-82
2020/12/07 04:48:41;;;;;;;28.37;14.50;;;7.50;99.90;;;;;;5038097;28;20175;-82
2020/12/07 04:51:11;;;;;;;27.50;14.40;;;7.60;99.90;;;;;;5037992;28;20732;-83
2020/12/07 04:53:38;;;;;;;29.03;15.77;;;7.50;99.90;;;;;;5037756;28;20605;-81
2020/12/07 04:56:03;;;;;;;29.10;15.97;;;7.60;99.90;;;;;;5037276;28;20750;-83
2020/12/07 04:58:29;;;;;;;28.93;14.97;;;7.60;99.90;;;;;;5037432;28;20175;-81
2020/12/07 05:00:54;;;;;;;28.07;14.50;;;7.60;99.90;;;;;;5038327;28;20206;-82
2020/12/07 05:03:20;;;;;;;27.83;14.30;;;7.60;99.90;;;;;;5055945;28;20167;-82
2020/12/07 05:05:49;;;;;;;26.30;13.77;;;7.50;99.90;;;;;;5037780;28;20202;-81
2020/12/07 05:08:15;;;;;;;27.07;13.33;;;7.60;99.90;;;;;;5037790;28;20673;-80
2020/12/07 05:10:43;;;;;;;31.60;14.67;;;7.60;99.90;;;;;;5037882;28;20206;-82
2020/12/07 05:13:31;;;;;;;27.73;14.23;;;7.60;99.90;;;;;;5037797;28;20262;-82
2020/12/07 05:15:57;;;;;;;29.60;14.53;;;7.60;99.90;;;;;;5037578;28;20230;-81
2020/12/07 05:18:22;;;;;;;27.07;14.77;;;7.60;99.90;;;;;;5037781;28;20207;-82
2020/12/07 05:20:48;;;;;;;26.23;13.50;;;7.70;99.90;;;;;;5037665;28;20202;-82
2020/12/07 05:23:18;;;;;;;27.00;14.23;;;7.60;99.90;;;;;;5042040;28;20261;-82
2020/12/07 05:25:47;;;;;;;27.60;13.57;;;7.70;99.90;;;;;;5037495;28;20253;-83
2020/12/07 05:28:19;;;;;;;28.60;15.13;;;7.70;99.90;;;;;;5058709;28;20186;-83
2020/12/07 05:30:48;;;;;;;27.33;14.33;;;7.70;99.90;;;;;;5037659;28;20177;-82
2020/12/07 05:33:15;;;;;;;26.27;13.60;;;7.70;99.90;;;;;;5037494;28;20182;-82
2020/12/07 05:35:45;;;;;;;33.60;16.07;;;7.70;99.90;;;;;;5045786;28;20203;-81
2020/12/07 05:38:11;;;;;;;27.10;13.50;;;7.70;99.90;;;;;;5049725;28;20206;-81
2020/12/07 05:40:36;;;;;;;27.37;14.53;;;7.70;99.90;;;;;;5075157;28;20648;-81
2020/12/07 05:43:02;;;;;;;30.53;14.77;;;7.70;99.90;;;;;;5074265;28;20162;-81
2020/12/07 05:45:28;;;;;;;28.77;14.23;;;7.70;99.90;;;;;;5056949;28;20203;-82
2020/12/07 05:47:55;;;;;;;25.57;13.03;;;7.80;99.90;;;;;;5075000;28;20740;-83
2020/12/07 05:50:21;;;;;;;26.33;14.10;;;7.80;99.90;;;;;;5057126;28;20179;-82
2020/12/07 05:52:56;;;;;;;29.03;14.83;;;7.80;99.90;;;;;;5075032;28;20182;-81
2020/12/07 05:55:22;;;;;;;23.27;12.47;;;7.70;99.90;;;;;;5074615;28;20199;-81
2020/12/07 05:57:58;;;;;;;30.90;18.27;;;7.80;99.90;;;;;;5073648;28;20405;-81
2020/12/07 06:00:24;;;;;;;27.80;13.93;;;7.80;99.90;;;;;;5075142;28;20211;-81
2020/12/07 06:02:54;;;;;;;25.60;15.07;;;7.90;99.90;;;;;;5057003;28;20175;-81
2020/12/07 06:05:22;;;;;;;25.57;13.73;;;7.80;99.90;;;;;;5074654;28;20195;-82
2020/12/07 06:08:13;;;;;;;25.57;12.90;;;7.80;99.90;;;;;;5056613;28;20229;-81
2020/12/07 06:10:58;;;;;;;26.83;13.07;;;7.80;99.90;;;;;;5074664;28;20301;-81
2020/12/07 06:13:25;;;;;;;26.83;13.93;;;7.80;99.90;;;;;;5056583;28;20265;-81
2020/12/07 06:15:52;;;;;;;24.60;14.10;;;7.80;99.90;;;;;;5056311;28;20360;-81
2020/12/07 06:18:29;;;;;;;24.53;12.93;;;7.80;99.90;;;;;;5074441;28;20205;-81
2020/12/07 06:20:56;;;;;;;28.70;13.87;;;7.80;99.90;;;;;;5074565;28;20178;-83
2020/12/07 06:23:30;;;;;;;28.63;14.67;;;7.80;99.90;;;;;;5074427;28;20171;-81
2020/12/07 06:26:02;;;;;;;26.17;14.23;;;7.80;99.90;;;;;;5056213;28;20710;-81
2020/12/07 06:28:32;;;;;;;29.30;15.17;;;7.80;99.90;;;;;;5074464;28;20159;-82
2020/12/07 06:31:17;;;;;;;26.47;14.53;;;7.80;99.90;;;;;;5056376;28;20206;-80
2020/12/07 06:33:46;;;;;;;29.93;13.40;;;7.70;99.90;;;;;;5056435;28;20356;-82
2020/12/07 06:36:30;;;;;;;29.47;14.63;;;7.70;99.90;;;;;;5055924;28;20216;-82
2020/12/07 06:39:01;;;;;;;26.33;14.50;;;7.70;99.90;;;;;;5056155;28;20224;-82
2020/12/07 06:41:47;;;;;;;25.97;13.07;;;7.70;99.90;;;;;;5074046;28;20183;-82
2020/12/07 06:44:15;;;;;;;26.97;15.13;;;7.80;99.90;;;;;;5073963;28;20195;-81
2020/12/07 06:46:47;;;;;;;27.33;14.33;;;7.80;99.90;;;;;;5055862;28;20171;-82
2020/12/07 06:49:13;;;;;;;28.37;13.97;;;7.80;99.90;;;;;;5055947;28;20171;-82
2020/12/07 06:51:40;;;;;;;26.60;14.23;;;7.70;99.90;;;;;;5056057;28;20184;-82
2020/12/07 06:55:01;;;;;;;28.70;14.93;;;7.80;99.90;;;;;;5054671;28;20178;-82
2020/12/07 06:56:52;;;;;;;29.57;14.70;;;7.80;99.90;;;;;;5073422;28;20548;-82
2020/12/07 06:59:18;;;;;;;28.00;14.83;;;7.70;99.90;;;;;;5055819;28;20171;-85
2020/12/07 07:01:51;;;;;;;26.63;14.70;;;7.70;99.90;;;;;;5055676;28;20189;-83
2020/12/07 07:04:20;;;;;;;25.27;14.03;;;7.70;99.90;;;;;;5047877;28;20296;-81
2020/12/07 07:06:45;;;;;;;29.47;15.67;;;7.70;99.90;;;;;;5055519;28;20182;-83
2020/12/07 07:09:11;;;;;;;26.37;14.90;;;7.70;99.90;;;;;;5073516;28;20191;-82
2020/12/07 07:11:37;;;;;;;30.70;14.93;;;7.70;99.90;;;;;;5073449;28;20243;-82
2020/12/07 07:14:02;;;;;;;30.40;14.60;;;7.60;99.90;;;;;;5055165;28;20194;-81
2020/12/07 07:16:32;;;;;;;29.77;15.23;;;7.60;99.90;;;;;;5055193;28;20262;-83
2020/12/07 07:18:57;;;;;;;27.50;14.47;;;7.60;99.90;;;;;;5055468;28;20278;-83
2020/12/07 07:21:23;;;;;;;28.90;15.33;;;7.60;99.90;;;;;;5073067;28;20249;-82
2020/12/07 07:23:49;;;;;;;28.77;14.73;;;7.50;99.90;;;;;;5055299;28;20181;-81
2020/12/07 07:26:28;;;;;;;30.17;14.90;;;7.50;99.90;;;;;;5055102;28;20183;-81
2020/12/07 07:28:53;;;;;;;26.60;13.77;;;7.50;99.90;;;;;;5055202;28;20588;-81
2020/12/07 07:31:19;;;;;;;27.07;13.90;;;7.50;99.90;;;;;;5055223;28;20170;-81
2020/12/07 07:33:45;;;;;;;33.30;15.30;;;7.50;99.90;;;;;;5055178;28;20182;-81
2020/12/07 07:36:24;;;;;;;30.77;15.53;;;7.50;99.90;;;;;;5054725;28;20729;-82
2020/12/07 07:38:54;;;;;;;26.83;14.23;;;7.50;99.90;;;;;;5055221;28;20218;-81
2020/12/07 07:41:29;;;;;;;27.60;14.60;;;7.40;99.90;;;;;;5055129;28;20209;-82
2020/12/07 07:43:55;;;;;;;27.07;14.80;;;7.50;99.90;;;;;;5054901;28;20167;-81
2020/12/07 07:46:21;;;;;;;30.90;14.50;;;7.50;99.90;;;;;;5054782;28;20175;-81
2020/12/07 07:49:02;;;;;;;31.90;15.03;;;7.40;99.90;;;;;;5054894;28;20181;-81
2020/12/07 07:52:11;;;;;;;29.87;14.43;;;7.50;99.90;;;;;;5054937;28;20204;-84
2020/12/07 08:00:08;;;;;;;27.80;14.17;;;7.40;99.90;;;;;;5072957;28;20166;-83
2020/12/07 08:15:18;;;;;;;28.00;13.23;;;7.40;99.90;;;;;;5072508;28;20202;-81
2020/12/07 08:15:55;;;;;;;29.43;14.30;;;7.50;99.90;;;;;;5054123;28;20239;-81
2020/12/07 08:18:35;;;;;;;31.83;15.80;;;7.50;99.90;;;;;;5054606;28;20185;-82
2020/12/07 08:21:02;;;;;;;28.73;14.57;;;7.50;99.90;;;;;;5054487;28;20656;-82
2020/12/07 08:23:30;;;;;;;25.43;13.90;;;7.50;99.90;;;;;;5054390;28;20765;-82
2020/12/07 08:25:56;;;;;;;27.90;13.87;;;7.50;99.90;;;;;;5054065;28;20198;-81
2020/12/07 08:28:40;;;;;;;28.37;14.60;;;7.50;99.90;;;;;;5054288;28;20791;-81
2020/12/07 08:31:14;;;;;;;29.10;14.17;;;7.40;99.90;;;;;;5054472;28;20186;-81
2020/12/07 08:34:15;;;;;;;29.70;14.20;;;7.40;99.90;;;;;;5054360;28;20202;-82
2020/12/07 08:36:42;;;;;;;28.73;13.50;;;7.40;99.90;;;;;;5054050;28;20667;-81
2020/12/07 08:39:08;;;;;;;27.63;14.80;;;7.40;99.90;;;;;;5054290;28;20179;-82
2020/12/07 08:41:35;;;;;;;25.33;14.57;;;7.40;99.90;;;;;;5054365;28;20177;-82
2020/12/07 08:44:03;;;;;;;27.07;14.83;;;7.40;99.90;;;;;;5054131;28;20175;-81
2020/12/07 08:46:30;;;;;;;26.87;14.10;;;7.40;99.90;;;;;;5054019;28;20269;-82
2020/12/07 08:48:57;;;;;;;29.70;14.90;;;7.40;99.90;;;;;;5054134;28;20311;-81
2020/12/07 08:51:27;;;;;;;26.07;13.53;;;7.30;99.90;;;;;;5054265;28;20228;-82
2020/12/07 08:53:53;;;;;;;31.30;15.13;;;7.30;99.90;;;;;;5054234;28;20269;-81
2020/12/07 08:56:19;;;;;;;29.77;15.07;;;7.30;99.90;;;;;;5071885;28;20274;-81
2020/12/07 08:58:44;;;;;;;27.00;12.87;;;7.30;99.90;;;;;;5053724;28;20686;-82
2020/12/07 09:01:11;;;;;;;26.90;14.13;;;7.30;99.90;;;;;;5072190;28;20179;-82
2020/12/07 09:03:38;;;;;;;31.07;15.40;;;7.30;99.90;;;;;;5053911;28;20175;-82
2020/12/07 09:06:05;;;;;;;28.63;14.17;;;7.40;99.90;;;;;;5053736;28;20195;-81
2020/12/07 09:08:33;;;;;;;30.27;16.03;;;7.40;99.90;;;;;;5071821;28;20629;-81
2020/12/07 09:10:59;;;;;;;26.40;14.03;;;7.40;99.90;;;;;;5054003;28;20205;-84
2020/12/07 09:13:25;;;;;;;29.53;14.77;;;7.40;99.90;;;;;;5053972;28;20598;-79
2020/12/07 09:15:51;;;;;;;28.93;14.20;;;7.40;99.90;;;;;;5071691;28;20623;-82
2020/12/07 09:18:17;;;;;;;30.90;15.87;;;7.40;99.90;;;;;;5056028;28;20179;-81
2020/12/07 09:20:43;;;;;;;28.03;15.23;;;7.40;99.90;;;;;;5057521;28;20582;-83
2020/12/07 09:23:09;;;;;;;28.57;15.10;;;7.40;99.90;;;;;;5057579;28;20258;-81
2020/12/07 09:25:34;;;;;;;26.60;14.37;;;7.40;99.90;;;;;;5057475;28;20191;-82
2020/12/07 09:28:00;;;;;;;26.40;15.13;;;7.40;99.90;;;;;;5057433;28;20520;-82
2020/12/07 09:30:25;;;;;;;30.90;14.13;;;7.30;99.90;;;;;;5057612;28;20191;-82
2020/12/07 09:32:51;;;;;;;28.47;14.53;;;7.30;99.90;;;;;;5057572;28;20267;-83
2020/12/07 09:35:18;;;;;;;28.23;14.07;;;7.40;99.90;;;;;;5074990;28;20236;-82
2020/12/07 09:37:44;;;;;;;29.67;15.23;;;7.30;99.90;;;;;;5057017;28;20219;-82
2020/12/07 09:40:11;;;;;;;29.17;12.90;;;7.40;99.90;;;;;;5057254;28;20265;-81
2020/12/07 09:42:37;;;;;;;29.10;14.17;;;7.40;99.90;;;;;;5075085;28;20167;-81
2020/12/07 09:45:04;;;;;;;28.53;14.03;;;7.30;99.90;;;;;;5057012;28;20199;-81
2020/12/07 09:47:30;;;;;;;29.30;14.30;;;7.30;99.90;;;;;;5056776;28;20514;-81
2020/12/07 09:49:55;;;;;;;33.00;14.33;;;7.30;99.90;;;;;;5057153;28;20186;-82
2020/12/07 09:52:21;;;;;;;29.37;14.83;;;7.40;99.90;;;;;;5057069;28;20252;-82
2020/12/07 09:54:47;;;;;;;28.23;14.90;;;7.30;99.90;;;;;;5056890;28;20285;-81
2020/12/07 09:57:13;;;;;;;27.80;14.57;;;7.30;99.90;;;;;;5056910;28;20584;-82
2020/12/07 09:59:39;;;;;;;32.33;14.93;;;7.30;99.90;;;;;;5056958;28;20237;-82
2020/12/07 10:02:04;;;;;;;28.43;13.63;;;7.30;99.90;;;;;;5056954;28;20174;-82
2020/12/07 10:04:30;;;;;;;26.77;14.63;;;7.30;99.90;;;;;;5056727;28;20559;-81
2020/12/07 10:06:55;;;;;;;31.77;14.57;;;7.40;99.90;;;;;;5074576;28;20381;-82
2020/12/07 10:09:21;;;;;;;25.83;13.93;;;7.40;99.90;;;;;;5056761;28;20543;-80
2020/12/07 10:11:48;;;;;;;30.40;15.33;;;7.40;99.90;;;;;;5074589;28;20170;-81
2020/12/07 10:14:14;;;;;;;25.03;12.73;;;7.30;99.90;;;;;;5056475;28;20215;-81
2020/12/07 10:16:45;;;;;;;25.03;13.37;;;7.40;99.90;;;;;;5056461;28;20175;-82
2020/12/07 10:19:12;;;;;;;27.67;14.07;;;7.40;99.90;;;;;;5074467;28;20171;-82
2020/12/07 10:21:37;;;;;;;30.63;15.97;;;7.40;99.90;;;;;;5056650;28;20601;-81
2020/12/07 10:24:03;;;;;;;28.27;13.43;;;7.30;99.90;;;;;;5056506;28;20214;-84
2020/12/07 10:26:29;;;;;;;27.50;13.77;;;7.40;99.90;;;;;;5056171;28;20171;-84
2020/12/07 10:28:55;;;;;;;29.40;13.67;;;7.40;99.90;;;;;;5056202;28;20213;-85
2020/12/07 10:31:24;;;;;;;26.40;13.87;;;7.40;99.90;;;;;;5056535;28;20701;-81
2020/12/07 10:33:50;;;;;;;23.40;12.43;;;7.40;99.90;;;;;;5056125;28;20228;-82
2020/12/07 10:36:16;;;;;;;28.07;14.03;;;7.40;99.90;;;;;;5055931;28;20748;-81
2020/12/07 10:38:46;;;;;;;26.90;13.27;;;7.40;99.90;;;;;;5056193;28;20236;-81
2020/12/07 10:41:13;;;;;;;25.13;13.70;;;7.40;99.90;;;;;;5056239;28;20171;-81
2020/12/07 10:43:43;;;;;;;24.50;14.03;;;7.40;99.90;;;;;;5056066;28;20257;-81
2020/12/07 10:46:11;;;;;;;24.47;13.37;;;7.40;99.90;;;;;;5055658;28;20198;-81
2020/12/07 10:48:36;;;;;;;27.23;14.03;;;7.40;99.90;;;;;;5055984;28;20264;-82
2020/12/07 10:51:02;;;;;;;27.40;14.17;;;7.40;99.90;;;;;;5056090;28;20229;-83
2020/12/07 10:53:27;;;;;;;22.47;12.40;;;7.40;99.90;;;;;;5055984;28;20175;-81
2020/12/07 10:55:53;;;;;;;24.87;13.53;;;7.50;99.90;;;;;;5055527;28;20605;-82
2020/12/07 10:58:19;;;;;;;27.37;13.93;;;7.50;99.90;;;;;;5055267;28;20179;-80
2020/12/07 11:00:45;;;;;;;23.97;12.00;;;7.50;99.90;;;;;;5055817;28;20660;-82
2020/12/07 11:03:11;;;;;;;26.23;14.30;;;7.50;99.90;;;;;;5055735;28;20166;-81
2020/12/07 11:05:38;;;;;;;25.17;13.10;;;7.50;99.90;;;;;;5055483;28;20194;-80
2020/12/07 11:08:12;;;;;;;26.87;13.97;;;7.50;99.90;;;;;;5055488;28;20228;-82
2020/12/07 11:10:38;;;;;;;25.30;13.30;;;7.50;99.90;;;;;;5055625;28;20257;-81
2020/12/07 11:13:10;;;;;;;26.13;13.57;;;7.50;99.90;;;;;;5055506;28;20257;-82
2020/12/07 11:15:36;;;;;;;22.93;12.47;;;7.50;99.90;;;;;;5073065;28;20297;-82
2020/12/07 11:18:01;;;;;;;21.80;12.33;;;7.40;99.90;;;;;;5055321;28;20258;-81
2020/12/07 11:20:27;;;;;;;23.80;14.50;;;7.50;99.90;;;;;;5055446;28;20178;-81
2020/12/07 11:22:52;;;;;;;25.00;13.57;;;7.50;99.90;;;;;;5073328;28;20175;-81
2020/12/07 11:25:17;;;;;;;25.43;14.17;;;7.50;99.90;;;;;;5055308;28;20294;-81
2020/12/07 11:27:43;;;;;;;24.23;13.50;;;7.50;99.90;;;;;;5055139;28;20175;-81
2020/12/07 11:30:09;;;;;;;24.53;13.07;;;7.50;99.90;;;;;;5055285;28;20645;-82
2020/12/07 11:32:34;;;;;;;26.03;13.33;;;7.60;99.90;;;;;;5055071;28;20183;-81
2020/12/07 11:35:00;;;;;;;26.17;12.73;;;7.50;99.90;;;;;;5054930;28;20199;-81
2020/12/07 11:37:25;;;;;;;22.80;12.97;;;7.60;99.90;;;;;;5054934;28;20345;-82
2020/12/07 11:39:57;;;;;;;25.87;12.90;;;7.60;99.90;;;;;;5054737;28;20206;-81
2020/12/07 11:42:47;;;;;;;24.60;13.17;;;7.60;99.90;;;;;;5055118;28;20162;-83
2020/12/07 11:45:13;;;;;;;23.03;12.30;;;7.70;99.90;;;;;;5072797;28;20199;-82
2020/12/07 11:47:38;;;;;;;29.07;14.73;;;7.60;99.90;;;;;;5054796;28;20177;-82
2020/12/07 11:50:04;;;;;;;24.80;13.63;;;7.60;99.90;;;;;;5054901;28;20178;-82
2020/12/07 11:52:30;;;;;;;23.67;13.50;;;7.60;99.90;;;;;;5072885;28;20253;-82
2020/12/07 11:54:55;;;;;;;23.00;12.30;;;7.60;99.90;;;;;;5072565;28;20791;-82
2020/12/07 11:57:21;;;;;;;27.97;14.20;;;7.60;99.90;;;;;;5054344;28;20574;-83
2020/12/07 11:59:46;;;;;;;25.43;13.40;;;7.60;99.90;;;;;;5054730;28;20175;-82
2020/12/07 12:02:12;;;;;;;28.67;13.57;;;7.70;99.90;;;;;;5072648;28;20652;-82
2020/12/07 12:04:37;;;;;;;29.67;14.30;;;7.70;99.90;;;;;;5054860;28;20190;-82
2020/12/07 12:07:03;;;;;;;25.73;12.63;;;7.60;99.90;;;;;;5054565;28;20536;-83
2020/12/07 12:09:28;;;;;;;25.07;13.30;;;7.60;99.90;;;;;;5054742;28;20185;-83
2020/12/07 12:11:54;;;;;;;28.07;14.37;;;7.50;99.90;;;;;;5046809;28;20184;-82
2020/12/07 12:14:19;;;;;;;29.67;14.87;;;7.50;99.90;;;;;;5052036;28;20215;-83
2020/12/07 12:16:47;;;;;;;28.77;14.20;;;7.60;99.90;;;;;;5034434;28;20167;-84
2020/12/07 12:19:12;;;;;;;25.53;13.23;;;7.60;99.90;;;;;;5034590;28;20180;-85
2020/12/07 12:21:38;;;;;;;22.97;12.97;;;7.60;99.90;;;;;;5034803;28;20168;-82
2020/12/07 12:24:05;;;;;;;26.67;13.63;;;7.60;99.90;;;;;;5034497;28;20274;-82
2020/12/07 12:26:32;;;;;;;29.63;14.17;;;7.60;99.90;;;;;;5034404;28;20266;-82
2020/12/07 12:28:59;;;;;;;26.40;14.80;;;7.60;99.90;;;;;;5052315;28;20175;-82
2020/12/07 12:31:24;;;;;;;24.50;13.03;;;7.60;99.90;;;;;;5034498;28;20523;-82
2020/12/07 12:33:50;;;;;;;23.80;13.27;;;7.60;99.90;;;;;;5034432;28;20237;-84
2020/12/07 12:36:18;;;;;;;28.60;14.80;;;7.60;99.90;;;;;;5034252;28;20199;-82
2020/12/07 12:38:44;;;;;;;23.00;12.30;;;7.70;99.90;;;;;;5034300;28;20186;-82
2020/12/07 12:41:10;;;;;;;26.63;14.73;;;7.70;99.90;;;;;;5034256;28;20175;-83
2020/12/07 12:43:37;;;;;;;28.17;14.23;;;7.60;99.90;;;;;;5034430;28;20305;-82
2020/12/07 12:46:04;;;;;;;23.93;13.07;;;7.60;99.90;;;;;;5033935;28;20202;-83
2020/12/07 12:48:30;;;;;;;25.73;12.67;;;7.60;99.90;;;;;;5052232;28;20226;-84
2020/12/07 12:50:55;;;;;;;28.00;13.40;;;7.70;99.90;;;;;;5035851;28;20533;-82
2020/12/07 12:53:21;;;;;;;23.23;13.00;;;7.60;99.90;;;;;;5044915;28;20214;-81